sensor_id;sensor_type;location;lat;lon;timestamp;pressure;altitude;pressure_sealevel;temperature;humidity
19108;BME280;9686;48.832;9.126;2023-02-28T00:00:53;98862.88;;;1.75;nan
19108;BME280;9686;48.832;9.126;2023-02-28T00:03:18;98865.44;;;1.75;nan
19108;BME280;9686;48.832;9.126;2023-02-28T00:05:43;98862.75;;;1.72;nan
19108;BME280;9686;48.832;9.126;2023-02-28T00:08:20;98864.56;;;1.75;nan
19108;BME280;9686;48.832;9.126;2023-02-28T00:10:53;98858.38;;;1.70;nan
19108;BME280;9686;48.832;9.126;2023-02-28T00:13:18;98860.66;;;1.62;nan
19108;BME280;9686;48.832;9.126;2023-02-28T00:15:43;98855.28;;;2.01;nan
19108;BME280;9686;48.832;9.126;2023-02-28T00:18:10;98856.53;;;1.88;nan
19108;BME280;9686;48.832;9.126;2023-02-28T00:20:48;98856.88;;;1.97;nan
19108;BME280;9686;48.832;9.126;2023-02-28T00:23:21;98856.94;;;1.99;nan
19108;BME280;9686;48.832;9.126;2023-02-28T00:25:47;98851.38;;;1.88;nan
19108;BME280;9686;48.832;9.126;2023-02-28T00:28:12;98855.88;;;1.94;nan
19108;BME280;9686;48.832;9.126;2023-02-28T00:30:38;98854.88;;;1.90;nan
19108;BME280;9686;48.832;9.126;2023-02-28T00:36:05;98854.94;;;1.92;nan
19108;BME280;9686;48.832;9.126;2023-02-28T00:38:31;98855.13;;;1.96;nan
19108;BME280;9686;48.832;9.126;2023-02-28T00:40:57;98855.66;;;2.10;nan
19108;BME280;9686;48.832;9.126;2023-02-28T00:43:23;98856.97;;;2.00;nan
19108;BME280;9686;48.832;9.126;2023-02-28T00:46:14;98858.56;;;1.97;nan
19108;BME280;9686;48.832;9.126;2023-02-28T00:48:51;98857.28;;;1.85;nan
19108;BME280;9686;48.832;9.126;2023-02-28T00:51:16;98853.59;;;1.79;nan
19108;BME280;9686;48.832;9.126;2023-02-28T00:53:44;98846.69;;;1.78;nan
19108;BME280;9686;48.832;9.126;2023-02-28T00:56:09;98843.72;;;1.90;nan
19108;BME280;9686;48.832;9.126;2023-02-28T00:58:35;98851.28;;;1.85;nan
19108;BME280;9686;48.832;9.126;2023-02-28T01:01:00;98850.56;;;1.89;nan
19108;BME280;9686;48.832;9.126;2023-02-28T01:03:26;98850.47;;;1.86;nan
19108;BME280;9686;48.832;9.126;2023-02-28T01:06:03;98861.72;;;1.90;nan
19108;BME280;9686;48.832;9.126;2023-02-28T01:08:52;98855.66;;;1.88;nan
19108;BME280;9686;48.832;9.126;2023-02-28T01:11:20;98854.28;;;1.75;nan
19108;BME280;9686;48.832;9.126;2023-02-28T01:16:51;98847.69;;;1.81;nan
19108;BME280;9686;48.832;9.126;2023-02-28T01:19:17;98843.94;;;1.73;nan
19108;BME280;9686;48.832;9.126;2023-02-28T01:21:42;98842.47;;;1.80;nan
19108;BME280;9686;48.832;9.126;2023-02-28T01:24:15;98837.41;;;1.81;nan
19108;BME280;9686;48.832;9.126;2023-02-28T01:29:15;98840.06;;;1.83;nan
19108;BME280;9686;48.832;9.126;2023-02-28T01:31:41;98841.22;;;1.69;nan
19108;BME280;9686;48.832;9.126;2023-02-28T01:34:12;98841.78;;;1.62;nan
19108;BME280;9686;48.832;9.126;2023-02-28T01:36:39;98838.56;;;1.67;nan
19108;BME280;9686;48.832;9.126;2023-02-28T01:39:10;98833.03;;;1.79;nan
19108;BME280;9686;48.832;9.126;2023-02-28T01:41:43;98839.34;;;1.65;nan
19108;BME280;9686;48.832;9.126;2023-02-28T01:47:14;98837.59;;;1.64;nan
19108;BME280;9686;48.832;9.126;2023-02-28T01:49:40;98846.28;;;1.67;nan
19108;BME280;9686;48.832;9.126;2023-02-28T01:52:32;98842.19;;;1.72;nan
19108;BME280;9686;48.832;9.126;2023-02-28T01:55:15;98840.09;;;1.62;nan
19108;BME280;9686;48.832;9.126;2023-02-28T01:57:52;98837.09;;;1.51;nan
19108;BME280;9686;48.832;9.126;2023-02-28T02:00:24;98843.84;;;1.70;nan
19108;BME280;9686;48.832;9.126;2023-02-28T02:02:54;98828.06;;;1.61;nan
19108;BME280;9686;48.832;9.126;2023-02-28T02:05:40;98827.31;;;1.64;nan
19108;BME280;9686;48.832;9.126;2023-02-28T02:08:12;98826.50;;;1.65;nan
19108;BME280;9686;48.832;9.126;2023-02-28T02:11:11;98818.19;;;1.72;nan
19108;BME280;9686;48.832;9.126;2023-02-28T02:19:53;98817.25;;;1.70;nan
19108;BME280;9686;48.832;9.126;2023-02-28T02:31:50;98809.94;;;1.36;nan
19108;BME280;9686;48.832;9.126;2023-02-28T02:36:53;98805.81;;;1.62;nan
19108;BME280;9686;48.832;9.126;2023-02-28T02:39:31;98802.13;;;1.55;nan
19108;BME280;9686;48.832;9.126;2023-02-28T02:42:08;98809.28;;;1.62;nan
19108;BME280;9686;48.832;9.126;2023-02-28T02:44:42;98808.22;;;1.57;nan
19108;BME280;9686;48.832;9.126;2023-02-28T02:47:14;98809.22;;;1.61;nan
19108;BME280;9686;48.832;9.126;2023-02-28T02:49:51;98813.88;;;1.71;nan
19108;BME280;9686;48.832;9.126;2023-02-28T02:52:27;98816.38;;;1.69;nan
19108;BME280;9686;48.832;9.126;2023-02-28T02:54:56;98810.72;;;1.78;nan
19108;BME280;9686;48.832;9.126;2023-02-28T03:00:46;98809.81;;;1.55;nan
19108;BME280;9686;48.832;9.126;2023-02-28T03:03:21;98809.44;;;1.67;nan
19108;BME280;9686;48.832;9.126;2023-02-28T03:05:58;98814.47;;;1.64;nan
19108;BME280;9686;48.832;9.126;2023-02-28T03:08:24;98815.47;;;1.90;nan
19108;BME280;9686;48.832;9.126;2023-02-28T03:11:03;98813.81;;;1.69;nan
19108;BME280;9686;48.832;9.126;2023-02-28T03:18:57;98814.84;;;1.74;nan
19108;BME280;9686;48.832;9.126;2023-02-28T03:24:23;98820.06;;;1.98;nan
19108;BME280;9686;48.832;9.126;2023-02-28T03:29:43;98824.25;;;1.96;nan
19108;BME280;9686;48.832;9.126;2023-02-28T03:32:19;98816.59;;;1.98;nan
19108;BME280;9686;48.832;9.126;2023-02-28T03:37:37;98814.22;;;2.02;nan
19108;BME280;9686;48.832;9.126;2023-02-28T03:40:55;98811.06;;;2.09;nan
19108;BME280;9686;48.832;9.126;2023-02-28T03:43:59;98817.59;;;2.01;nan
19108;BME280;9686;48.832;9.126;2023-02-28T03:47:00;98805.38;;;2.18;nan
19108;BME280;9686;48.832;9.126;2023-02-28T03:49:50;98813.84;;;2.15;nan
19108;BME280;9686;48.832;9.126;2023-02-28T03:52:23;98806.03;;;2.12;nan
19108;BME280;9686;48.832;9.126;2023-02-28T03:54:55;98804.28;;;2.11;nan
19108;BME280;9686;48.832;9.126;2023-02-28T04:00:20;98800.69;;;2.08;nan
19108;BME280;9686;48.832;9.126;2023-02-28T04:02:59;98805.38;;;2.18;nan
19108;BME280;9686;48.832;9.126;2023-02-28T04:05:47;98806.91;;;2.13;nan
19108;BME280;9686;48.832;9.126;2023-02-28T04:08:14;98817.31;;;2.16;nan
19108;BME280;9686;48.832;9.126;2023-02-28T04:12:00;98808.66;;;2.14;nan
19108;BME280;9686;48.832;9.126;2023-02-28T04:14:04;98815.56;;;2.15;nan
19108;BME280;9686;48.832;9.126;2023-02-28T04:16:37;98827.44;;;2.11;nan
19108;BME280;9686;48.832;9.126;2023-02-28T04:19:04;98823.06;;;2.09;nan
19108;BME280;9686;48.832;9.126;2023-02-28T04:21:50;98814.50;;;2.34;nan
19108;BME280;9686;48.832;9.126;2023-02-28T04:24:19;98818.22;;;2.18;nan
19108;BME280;9686;48.832;9.126;2023-02-28T04:26:57;98819.94;;;2.17;nan
19108;BME280;9686;48.832;9.126;2023-02-28T04:29:36;98820.38;;;2.07;nan
19108;BME280;9686;48.832;9.126;2023-02-28T04:32:02;98827.38;;;2.10;nan
19108;BME280;9686;48.832;9.126;2023-02-28T04:34:46;98823.66;;;2.03;nan
19108;BME280;9686;48.832;9.126;2023-02-28T04:37:11;98818.88;;;2.12;nan
19108;BME280;9686;48.832;9.126;2023-02-28T04:39:43;98813.34;;;2.26;nan
19108;BME280;9686;48.832;9.126;2023-02-28T04:42:11;98803.22;;;2.06;nan
19108;BME280;9686;48.832;9.126;2023-02-28T04:44:42;98803.50;;;2.14;nan
19108;BME280;9686;48.832;9.126;2023-02-28T04:47:08;98816.44;;;2.15;nan
19108;BME280;9686;48.832;9.126;2023-02-28T04:49:33;98805.47;;;2.21;nan
19108;BME280;9686;48.832;9.126;2023-02-28T04:52:02;98804.34;;;2.37;nan
19108;BME280;9686;48.832;9.126;2023-02-28T04:54:38;98805.13;;;2.34;nan
19108;BME280;9686;48.832;9.126;2023-02-28T04:57:12;98819.59;;;2.32;nan
19108;BME280;9686;48.832;9.126;2023-02-28T04:59:41;98817.41;;;2.19;nan
19108;BME280;9686;48.832;9.126;2023-02-28T05:02:06;98817.31;;;2.16;nan
19108;BME280;9686;48.832;9.126;2023-02-28T05:04:56;98811.78;;;2.29;nan
19108;BME280;9686;48.832;9.126;2023-02-28T05:07:34;98809.97;;;2.27;nan
19108;BME280;9686;48.832;9.126;2023-02-28T05:13:11;98820.25;;;2.27;nan
19108;BME280;9686;48.832;9.126;2023-02-28T05:18:29;98809.97;;;2.27;nan
19108;BME280;9686;48.832;9.126;2023-02-28T05:20:59;98817.31;;;2.40;nan
19108;BME280;9686;48.832;9.126;2023-02-28T05:23:31;98821.44;;;2.35;nan
19108;BME280;9686;48.832;9.126;2023-02-28T05:25:57;98817.97;;;2.34;nan
19108;BME280;9686;48.832;9.126;2023-02-28T05:28:23;98816.81;;;2.50;nan
19108;BME280;9686;48.832;9.126;2023-02-28T05:30:51;98816.81;;;2.50;nan
19108;BME280;9686;48.832;9.126;2023-02-28T05:33:19;98822.78;;;2.49;nan
19108;BME280;9686;48.832;9.126;2023-02-28T05:35:45;98815.94;;;2.26;nan
19108;BME280;9686;48.832;9.126;2023-02-28T05:38:11;98823.59;;;2.48;nan
19108;BME280;9686;48.832;9.126;2023-02-28T05:40:48;98820.56;;;2.34;nan
19108;BME280;9686;48.832;9.126;2023-02-28T05:43:39;98817.78;;;2.30;nan
19108;BME280;9686;48.832;9.126;2023-02-28T05:46:15;98818.97;;;2.38;nan
19108;BME280;9686;48.832;9.126;2023-02-28T05:48:41;98824.09;;;2.38;nan
19108;BME280;9686;48.832;9.126;2023-02-28T05:51:10;98816.34;;;2.36;nan
19108;BME280;9686;48.832;9.126;2023-02-28T05:53:38;98829.69;;;2.50;nan
19108;BME280;9686;48.832;9.126;2023-02-28T05:56:04;98829.47;;;2.44;nan
19108;BME280;9686;48.832;9.126;2023-02-28T05:58:30;98834.69;;;2.23;nan
19108;BME280;9686;48.832;9.126;2023-02-28T06:00:59;98834.78;;;2.48;nan
19108;BME280;9686;48.832;9.126;2023-02-28T06:07:12;98836.53;;;2.50;nan
19108;BME280;9686;48.832;9.126;2023-02-28T06:13:01;98826.38;;;2.54;nan
19108;BME280;9686;48.832;9.126;2023-02-28T06:19:00;98838.59;;;2.60;nan
19108;BME280;9686;48.832;9.126;2023-02-28T06:32:09;98839.16;;;2.51;nan
19108;BME280;9686;48.832;9.126;2023-02-28T06:38:00;98848.88;;;2.60;nan
19108;BME280;9686;48.832;9.126;2023-02-28T06:43:47;98860.25;;;2.65;nan
19108;BME280;9686;48.832;9.126;2023-02-28T06:49:54;98859.06;;;2.57;nan
19108;BME280;9686;48.832;9.126;2023-02-28T06:55:42;98863.91;;;2.71;nan
19108;BME280;9686;48.832;9.126;2023-02-28T07:01:46;98868.06;;;2.68;nan
19108;BME280;9686;48.832;9.126;2023-02-28T07:07:27;98861.25;;;2.94;nan
19108;BME280;9686;48.832;9.126;2023-02-28T07:13:14;98872.16;;;2.87;nan
19108;BME280;9686;48.832;9.126;2023-02-28T07:19:01;98870.63;;;2.92;nan
19108;BME280;9686;48.832;9.126;2023-02-28T07:24:50;98876.03;;;2.75;nan
19108;BME280;9686;48.832;9.126;2023-02-28T07:29:46;98874.44;;;3.03;nan
19108;BME280;9686;48.832;9.126;2023-02-28T07:32:15;98875.31;;;3.03;nan
19108;BME280;9686;48.832;9.126;2023-02-28T07:34:41;98874.47;;;3.04;nan
19108;BME280;9686;48.832;9.126;2023-02-28T07:37:06;98876.13;;;3.02;nan
19108;BME280;9686;48.832;9.126;2023-02-28T07:39:32;98880.56;;;3.06;nan
19108;BME280;9686;48.832;9.126;2023-02-28T07:41:57;98882.75;;;3.20;nan
19108;BME280;9686;48.832;9.126;2023-02-28T07:44:25;98886.16;;;3.19;nan
19108;BME280;9686;48.832;9.126;2023-02-28T07:46:51;98884.44;;;3.19;nan
19108;BME280;9686;48.832;9.126;2023-02-28T07:49:18;98882.97;;;3.02;nan
19108;BME280;9686;48.832;9.126;2023-02-28T07:51:44;98880.13;;;3.18;nan
19108;BME280;9686;48.832;9.126;2023-02-28T07:54:09;98884.88;;;3.07;nan
19108;BME280;9686;48.832;9.126;2023-02-28T07:56:35;98884.84;;;3.06;nan
19108;BME280;9686;48.832;9.126;2023-02-28T07:59:00;98888.56;;;3.14;nan
19108;BME280;9686;48.832;9.126;2023-02-28T08:01:29;98890.28;;;3.14;nan
19108;BME280;9686;48.832;9.126;2023-02-28T08:03:55;98891.25;;;3.17;nan
19108;BME280;9686;48.832;9.126;2023-02-28T08:06:24;98888.97;;;3.01;nan
19108;BME280;9686;48.832;9.126;2023-02-28T08:08:51;98886.97;;;3.18;nan
19108;BME280;9686;48.832;9.126;2023-02-28T08:11:18;98894.03;;;3.23;nan
19108;BME280;9686;48.832;9.126;2023-02-28T08:13:44;98892.75;;;3.37;nan
19108;BME280;9686;48.832;9.126;2023-02-28T08:16:11;98898.34;;;3.24;nan
19108;BME280;9686;48.832;9.126;2023-02-28T08:18:37;98901.03;;;3.27;nan
19108;BME280;9686;48.832;9.126;2023-02-28T08:21:07;98893.91;;;3.20;nan
19108;BME280;9686;48.832;9.126;2023-02-28T08:23:33;98890.53;;;3.21;nan
19108;BME280;9686;48.832;9.126;2023-02-28T08:25:58;98900.72;;;3.18;nan
19108;BME280;9686;48.832;9.126;2023-02-28T08:28:27;98897.38;;;3.21;nan
19108;BME280;9686;48.832;9.126;2023-02-28T08:30:53;98894.59;;;3.15;nan
19108;BME280;9686;48.832;9.126;2023-02-28T08:33:19;98898.25;;;3.21;nan
19108;BME280;9686;48.832;9.126;2023-02-28T08:35:45;98907.09;;;3.29;nan
19108;BME280;9686;48.832;9.126;2023-02-28T08:38:13;98900.50;;;3.37;nan
19108;BME280;9686;48.832;9.126;2023-02-28T08:40:39;98900.94;;;3.24;nan
19108;BME280;9686;48.832;9.126;2023-02-28T08:43:06;98902.00;;;3.31;nan
19108;BME280;9686;48.832;9.126;2023-02-28T08:45:31;98899.47;;;3.58;nan
19108;BME280;9686;48.832;9.126;2023-02-28T08:47:57;98895.53;;;3.42;nan
19108;BME280;9686;48.832;9.126;2023-02-28T08:50:25;98909.38;;;3.46;nan
19108;BME280;9686;48.832;9.126;2023-02-28T08:52:51;98905.88;;;3.44;nan
19108;BME280;9686;48.832;9.126;2023-02-28T08:55:17;98904.31;;;3.49;nan
19108;BME280;9686;48.832;9.126;2023-02-28T08:57:43;98906.59;;;3.39;nan
19108;BME280;9686;48.832;9.126;2023-02-28T09:00:09;98916.91;;;3.39;nan
19108;BME280;9686;48.832;9.126;2023-02-28T09:02:38;98912.34;;;3.32;nan
19108;BME280;9686;48.832;9.126;2023-02-28T09:05:08;98916.72;;;3.35;nan
19108;BME280;9686;48.832;9.126;2023-02-28T09:07:35;98913.22;;;3.85;nan
19108;BME280;9686;48.832;9.126;2023-02-28T09:10:00;98911.44;;;3.83;nan
19108;BME280;9686;48.832;9.126;2023-02-28T09:12:34;98914.84;;;4.09;nan
19108;BME280;9686;48.832;9.126;2023-02-28T09:15:03;98909.16;;;4.19;nan
19108;BME280;9686;48.832;9.126;2023-02-28T09:17:29;98910.06;;;4.21;nan
19108;BME280;9686;48.832;9.126;2023-02-28T09:19:55;98904.50;;;4.37;nan
19108;BME280;9686;48.832;9.126;2023-02-28T09:22:20;98905.63;;;4.45;nan
19108;BME280;9686;48.832;9.126;2023-02-28T09:24:47;98896.34;;;4.52;nan
19108;BME280;9686;48.832;9.126;2023-02-28T09:27:12;98905.44;;;4.39;nan
19108;BME280;9686;48.832;9.126;2023-02-28T09:29:38;98907.50;;;4.51;nan
19108;BME280;9686;48.832;9.126;2023-02-28T09:32:04;98916.22;;;4.54;nan
19108;BME280;9686;48.832;9.126;2023-02-28T09:34:32;98906.00;;;4.59;nan
19108;BME280;9686;48.832;9.126;2023-02-28T09:37:04;98913.75;;;4.59;nan
19108;BME280;9686;48.832;9.126;2023-02-28T09:39:30;98914.84;;;4.67;nan
19108;BME280;9686;48.832;9.126;2023-02-28T09:41:57;98914.63;;;4.89;nan
19108;BME280;9686;48.832;9.126;2023-02-28T09:44:36;98913.41;;;4.77;nan
19108;BME280;9686;48.832;9.126;2023-02-28T09:47:30;98909.69;;;4.97;nan
19108;BME280;9686;48.832;9.126;2023-02-28T09:50:03;98915.78;;;4.69;nan
19108;BME280;9686;48.832;9.126;2023-02-28T09:52:32;98917.91;;;5.15;nan
19108;BME280;9686;48.832;9.126;2023-02-28T09:57:56;98930.75;;;5.12;nan
19108;BME280;9686;48.832;9.126;2023-02-28T10:00:36;98928.16;;;5.12;nan
19108;BME280;9686;48.832;9.126;2023-02-28T10:03:21;98928.06;;;5.08;nan
19108;BME280;9686;48.832;9.126;2023-02-28T10:05:58;98925.31;;;5.35;nan
19108;BME280;9686;48.832;9.126;2023-02-28T10:08:34;98923.56;;;5.34;nan
19108;BME280;9686;48.832;9.126;2023-02-28T10:11:02;98932.97;;;5.30;nan
19108;BME280;9686;48.832;9.126;2023-02-28T10:13:32;98931.25;;;5.31;nan
19108;BME280;9686;48.832;9.126;2023-02-28T10:16:07;98921.28;;;5.46;nan
19108;BME280;9686;48.832;9.126;2023-02-28T10:18:49;98924.22;;;5.58;nan
19108;BME280;9686;48.832;9.126;2023-02-28T10:21:26;98934.78;;;5.67;nan
19108;BME280;9686;48.832;9.126;2023-02-28T10:23:59;98930.72;;;5.77;nan
19108;BME280;9686;48.832;9.126;2023-02-28T10:26:28;98937.53;;;5.73;nan
19108;BME280;9686;48.832;9.126;2023-02-28T10:28:57;98937.34;;;5.67;nan
19108;BME280;9686;48.832;9.126;2023-02-28T10:31:24;98940.69;;;5.96;nan
19108;BME280;9686;48.832;9.126;2023-02-28T10:33:49;98946.59;;;5.91;nan
19108;BME280;9686;48.832;9.126;2023-02-28T10:36:17;98953.06;;;6.08;nan
19108;BME280;9686;48.832;9.126;2023-02-28T10:38:45;98946.22;;;6.10;nan
19108;BME280;9686;48.832;9.126;2023-02-28T10:41:15;98938.81;;;6.25;nan
19108;BME280;9686;48.832;9.126;2023-02-28T10:43:44;98937.31;;;6.36;nan
19108;BME280;9686;48.832;9.126;2023-02-28T10:48:44;98932.53;;;6.53;nan
19108;BME280;9686;48.832;9.126;2023-02-28T10:51:22;98934.34;;;6.57;nan
19108;BME280;9686;48.832;9.126;2023-02-28T10:53:53;98942.41;;;6.72;nan
19108;BME280;9686;48.832;9.126;2023-02-28T10:56:22;98935.50;;;6.73;nan
19108;BME280;9686;48.832;9.126;2023-02-28T11:01:21;98925.47;;;6.88;nan
19108;BME280;9686;48.832;9.126;2023-02-28T11:03:48;98930.09;;;7.03;nan
19108;BME280;9686;48.832;9.126;2023-02-28T11:08:53;98924.13;;;7.07;nan
19108;BME280;9686;48.832;9.126;2023-02-28T11:11:20;98923.09;;;7.00;nan
19108;BME280;9686;48.832;9.126;2023-02-28T11:13:51;98922.75;;;7.27;nan
19108;BME280;9686;48.832;9.126;2023-02-28T11:16:18;98923.41;;;7.16;nan
19108;BME280;9686;48.832;9.126;2023-02-28T11:18:51;98917.38;;;6.73;nan
19108;BME280;9686;48.832;9.126;2023-02-28T11:21:21;98916.38;;;6.66;nan
19108;BME280;9686;48.832;9.126;2023-02-28T11:23:50;98914.59;;;6.64;nan
19108;BME280;9686;48.832;9.126;2023-02-28T11:26:45;98902.63;;;6.69;nan
19108;BME280;9686;48.832;9.126;2023-02-28T11:29:21;98911.56;;;6.42;nan
19108;BME280;9686;48.832;9.126;2023-02-28T11:32:25;98916.78;;;6.45;nan
19108;BME280;9686;48.832;9.126;2023-02-28T11:37:35;98907.44;;;6.51;nan
19108;BME280;9686;48.832;9.126;2023-02-28T11:40:01;98907.31;;;6.46;nan
19108;BME280;9686;48.832;9.126;2023-02-28T11:53:24;98901.19;;;6.83;nan
19108;BME280;9686;48.832;9.126;2023-02-28T12:07:24;98888.63;;;7.53;nan
19108;BME280;9686;48.832;9.126;2023-02-28T12:15:27;98879.00;;;8.00;nan
19108;BME280;9686;48.832;9.126;2023-02-28T12:27:37;98864.66;;;9.87;nan
19108;BME280;9686;48.832;9.126;2023-02-28T12:33:42;98862.63;;;9.48;nan
19108;BME280;9686;48.832;9.126;2023-02-28T12:39:19;98863.88;;;9.99;nan
19108;BME280;9686;48.832;9.126;2023-02-28T12:51:16;98850.66;;;8.80;nan
19108;BME280;9686;48.832;9.126;2023-02-28T12:57:28;98849.66;;;8.69;nan
19108;BME280;9686;48.832;9.126;2023-02-28T13:00:08;98831.56;;;8.77;nan
19108;BME280;9686;48.832;9.126;2023-02-28T13:03:28;98843.75;;;8.84;nan
19108;BME280;9686;48.832;9.126;2023-02-28T13:09:56;98831.84;;;9.04;nan
19108;BME280;9686;48.832;9.126;2023-02-28T13:12:43;98836.13;;;8.99;nan
19108;BME280;9686;48.832;9.126;2023-02-28T13:15:35;98831.88;;;9.06;nan
19108;BME280;9686;48.832;9.126;2023-02-28T13:22:18;98835.56;;;9.31;nan
19108;BME280;9686;48.832;9.126;2023-02-28T17:24:17;98921.59;;;6.68;nan
19108;BME280;9686;48.832;9.126;2023-02-28T17:27:46;98922.28;;;6.59;nan
19108;BME280;9686;48.832;9.126;2023-02-28T17:30:37;98930.03;;;6.58;nan
19108;BME280;9686;48.832;9.126;2023-02-28T17:33:27;98926.22;;;6.42;nan
19108;BME280;9686;48.832;9.126;2023-02-28T17:39:40;98930.75;;;6.51;nan
19108;BME280;9686;48.832;9.126;2023-02-28T17:42:11;98932.03;;;6.32;nan
19108;BME280;9686;48.832;9.126;2023-02-28T17:44:48;98932.91;;;6.32;nan
19108;BME280;9686;48.832;9.126;2023-02-28T17:47:30;98934.59;;;6.30;nan
19108;BME280;9686;48.832;9.126;2023-02-28T17:51:23;98942.03;;;6.16;nan
19108;BME280;9686;48.832;9.126;2023-02-28T17:57:14;98939.19;;;6.04;nan
19108;BME280;9686;48.832;9.126;2023-02-28T18:00:22;98943.41;;;6.01;nan
19108;BME280;9686;48.832;9.126;2023-02-28T18:03:05;98948.56;;;5.99;nan
19108;BME280;9686;48.832;9.126;2023-02-28T18:09:42;98943.06;;;5.88;nan
19108;BME280;9686;48.832;9.126;2023-02-28T18:15:58;98946.59;;;5.91;nan
19108;BME280;9686;48.832;9.126;2023-02-28T18:21:53;98936.91;;;5.83;nan
19108;BME280;9686;48.832;9.126;2023-02-28T18:24:43;98938.28;;;5.69;nan
19108;BME280;9686;48.832;9.126;2023-02-28T18:27:44;98935.81;;;5.74;nan
19108;BME280;9686;48.832;9.126;2023-02-28T18:30:49;98935.94;;;5.78;nan
19108;BME280;9686;48.832;9.126;2023-02-28T18:34:28;98933.56;;;5.87;nan
19108;BME280;9686;48.832;9.126;2023-02-28T18:37:54;98945.53;;;5.84;nan
19108;BME280;9686;48.832;9.126;2023-02-28T18:44:16;98939.34;;;5.77;nan
19108;BME280;9686;48.832;9.126;2023-02-28T18:46:49;98945.16;;;5.69;nan
19108;BME280;9686;48.832;9.126;2023-02-28T18:52:55;98933.72;;;5.59;nan
19108;BME280;9686;48.832;9.126;2023-02-28T18:56:42;98934.47;;;5.55;nan
19108;BME280;9686;48.832;9.126;2023-02-28T18:59:00;98937.19;;;5.60;nan
19108;BME280;9686;48.832;9.126;2023-02-28T19:08:57;98942.63;;;5.37;nan
19108;BME280;9686;48.832;9.126;2023-02-28T19:11:25;98939.72;;;5.25;nan
19108;BME280;9686;48.832;9.126;2023-02-28T19:20:23;98944.66;;;4.86;nan
19108;BME280;9686;48.832;9.126;2023-02-28T19:23:06;98943.91;;;4.90;nan
19108;BME280;9686;48.832;9.126;2023-02-28T19:25:42;98938.69;;;4.88;nan
19108;BME280;9686;48.832;9.126;2023-02-28T19:28:38;98944.63;;;4.84;nan
19108;BME280;9686;48.832;9.126;2023-02-28T19:35:26;98949.88;;;4.87;nan
19108;BME280;9686;48.832;9.126;2023-02-28T22:23:28;98939.72;;;3.29;nan
19108;BME280;9686;48.832;9.126;2023-02-28T22:25:54;98940.16;;;3.41;nan
19108;BME280;9686;48.832;9.126;2023-02-28T22:28:21;98940.69;;;3.32;nan
19108;BME280;9686;48.832;9.126;2023-02-28T22:30:47;98942.72;;;3.41;nan
19108;BME280;9686;48.832;9.126;2023-02-28T22:33:14;98945.34;;;3.17;nan
19108;BME280;9686;48.832;9.126;2023-02-28T22:35:39;98947.69;;;3.11;nan
19108;BME280;9686;48.832;9.126;2023-02-28T22:38:05;98943.66;;;3.18;nan
19108;BME280;9686;48.832;9.126;2023-02-28T22:40:31;98941.28;;;3.00;nan
19108;BME280;9686;48.832;9.126;2023-02-28T22:42:57;98950.03;;;3.05;nan
19108;BME280;9686;48.832;9.126;2023-02-28T22:45:22;98951.63;;;3.01;nan
19108;BME280;9686;48.832;9.126;2023-02-28T22:47:48;98948.69;;;2.91;nan
19108;BME280;9686;48.832;9.126;2023-02-28T22:50:13;98945.06;;;2.86;nan
19108;BME280;9686;48.832;9.126;2023-02-28T22:52:39;98947.31;;;2.76;nan
19108;BME280;9686;48.832;9.126;2023-02-28T22:55:06;98944.94;;;2.83;nan
19108;BME280;9686;48.832;9.126;2023-02-28T22:57:32;98942.47;;;3.09;nan
19108;BME280;9686;48.832;9.126;2023-02-28T22:59:58;98946.06;;;3.13;nan
19108;BME280;9686;48.832;9.126;2023-02-28T23:02:24;98938.97;;;3.07;nan
19108;BME280;9686;48.832;9.126;2023-02-28T23:04:50;98942.56;;;2.87;nan
19108;BME280;9686;48.832;9.126;2023-02-28T23:07:15;98936.75;;;2.93;nan
19108;BME280;9686;48.832;9.126;2023-02-28T23:09:41;98937.38;;;3.11;nan
19108;BME280;9686;48.832;9.126;2023-02-28T23:12:06;98936.19;;;3.01;nan
19108;BME280;9686;48.832;9.126;2023-02-28T23:14:32;98943.81;;;2.98;nan
19108;BME280;9686;48.832;9.126;2023-02-28T23:16:58;98930.72;;;2.92;nan
19108;BME280;9686;48.832;9.126;2023-02-28T23:19:26;98932.13;;;2.84;nan
19108;BME280;9686;48.832;9.126;2023-02-28T23:21:53;98928.88;;;2.88;nan
19108;BME280;9686;48.832;9.126;2023-02-28T23:24:22;98943.75;;;2.73;nan
19108;BME280;9686;48.832;9.126;2023-02-28T23:26:50;98942.97;;;2.75;nan
19108;BME280;9686;48.832;9.126;2023-02-28T23:29:17;98941.84;;;2.91;nan
19108;BME280;9686;48.832;9.126;2023-02-28T23:31:43;98936.28;;;2.81;nan
19108;BME280;9686;48.832;9.126;2023-02-28T23:34:09;98942.47;;;2.86;nan
19108;BME280;9686;48.832;9.126;2023-02-28T23:36:37;98945.00;;;2.60;nan
19108;BME280;9686;48.832;9.126;2023-02-28T23:39:03;98945.78;;;2.59;nan
19108;BME280;9686;48.832;9.126;2023-02-28T23:41:31;98943.28;;;2.85;nan
19108;BME280;9686;48.832;9.126;2023-02-28T23:43:57;98944.41;;;2.67;nan
19108;BME280;9686;48.832;9.126;2023-02-28T23:46:22;98942.75;;;2.69;nan
19108;BME280;9686;48.832;9.126;2023-02-28T23:48:48;98946.81;;;2.63;nan
19108;BME280;9686;48.832;9.126;2023-02-28T23:51:16;98941.53;;;2.60;nan
19108;BME280;9686;48.832;9.126;2023-02-28T23:53:46;98938.38;;;2.67;nan
19108;BME280;9686;48.832;9.126;2023-02-28T23:56:16;98934.56;;;2.57;nan
19108;BME280;9686;48.832;9.126;2023-02-28T23:58:42;98933.53;;;2.52;nan
